September 28, 2022

Time Code Weather Temp. Visibility Ceiling Wind METAR/SPECI
07:25
L
5 °C 600 m - Var Var 2 kt METAR EHGG 280525Z AUTO VRB02KT 0600 R23/0900N FG OVC000 05/05 Q0994 BECMG 0800
06:55
L
5 °C 300 m - 220° 220° 2 kt METAR EHGG 280455Z AUTO 22002KT 0300 R23/0400N FG OVC000 05/05 Q0994 NOSIG
06:25
L
5 °C 350 m - 210° 210° 4 kt METAR EHGG 280425Z AUTO 21004KT 0350 R23/0450N FG OVC000 05/05 Q0994 NOSIG
05:55
L
6 °C 300 m - Var Var 2 kt METAR EHGG 280355Z AUTO VRB02KT 0300 R23/0400N FG VV000 06/06 Q0994
05:25
L
6 °C 300 m - 200° 200° 3 kt METAR EHGG 280325Z AUTO 20003KT 0300 R23/0400N FG VV000 06/06 Q0994
04:55
L
6 °C 200 m - 210° 210° 2 kt METAR EHGG 280255Z AUTO 21002KT 0200 R23/0275N FG VV000 06/05 Q0994
04:25
L
4 °C 350 m 100 ft 150° 150° 1 kt METAR EHGG 280225Z AUTO 15001KT 0350 R23/0600N FG VV001 04/04 Q0994
03:55
L
5 °C 400 m - 170° 170° 1 kt METAR EHGG 280155Z AUTO 17001KT 0400 R23/0650U FG BKN000 05/05 Q0994
03:25
I
5 °C 1.7 km - 170° 170° 1 kt METAR EHGG 280125Z AUTO 17001KT 1700 BR FEW043 05/05 Q0994
02:55
I
5 °C 1.6 km 4,200 ft 190° 190° 3 kt METAR EHGG 280055Z AUTO 19003KT 1600 R23/1300U BR OVC042 05/04 Q0994
02:25
L
5 °C 550 m - Var 000° 0 kt METAR EHGG 280025Z AUTO 00000KT 0550 R23/0750N FG NSC 05/05 Q0994
01:55
L
5 °C 900 m - 170° 170° 2 kt METAR EHGG 272355Z AUTO 17002KT 0900 R23/1200U FG NSC 05/05 Q0994
01:25
I
5 °C 1.9 km - 180° 180° 2 kt METAR EHGG 272325Z AUTO 18002KT 1900 BR NSC 05/05 Q0995
00:55
I
6 °C 4.9 km - 190° 190° 2 kt METAR EHGG 272255Z AUTO 19002KT 4900 BR NSC 06/06 Q0995
00:25
M
6 °C 6 km - 200° 200° 2 kt METAR EHGG 272225Z AUTO 20002KT 6000 NSC 06/06 Q0995

September 27, 2022

Time Code Weather Temp. Visibility Ceiling Wind METAR/SPECI
23:55
V
7 °C 10 km+ - 180° 180° 3 kt METAR EHGG 272155Z AUTO 18003KT 9999 NSC 07/06 Q0995
23:25
V
7 °C 10 km+ - 210° 210° 4 kt METAR EHGG 272125Z AUTO 21004KT 9999 NSC 07/07 Q0995
22:55
V
7 °C 10 km+ - 210° 210° 4 kt METAR EHGG 272055Z AUTO 21004KT 9999 NSC 07/07 Q0995
22:25
V
7 °C 10 km+ - 200° 200° 4 kt METAR EHGG 272025Z AUTO 20004KT 9999 FEW039 07/07 Q0995 NOSIG
21:55
V
7 °C 10 km+ - 210° 210° 4 kt METAR EHGG 271955Z AUTO 21004KT 9999 NSC 07/06 Q0995 NOSIG
21:25
V
8 °C 10 km+ - 200° 200° 5 kt METAR EHGG 271925Z AUTO 20005KT 150V220 9999 NSC 08/06 Q0995 NOSIG
20:55
V
7 °C 10 km+ - 210° 210° 4 kt METAR EHGG 271855Z AUTO 21004KT 9999 NSC 07/06 Q0995 NOSIG
20:25
V
7 °C 10 km+ - 240° 240° 4 kt METAR EHGG 271825Z AUTO 24004KT 210V270 9999 NSC 07/06 Q0995 NOSIG
19:55
V
8 °C 10 km+ - 260° 260° 5 kt METAR EHGG 271755Z AUTO 26005KT 220V290 9999 NSC 08/06 Q0995 NOSIG
19:25
V
9 °C 10 km+ - 250° 250° 5 kt METAR EHGG 271725Z AUTO 25005KT 9999 NSC 09/06 Q0995 TEMPO 6000 SHRA SCT015CB
18:55
V
10 °C 10 km+ - 240° 240° 8 kt METAR EHGG 271655Z AUTO 24008KT 200V260 9999 FEW025 10/08 Q0995 TEMPO 6000 SHRA SCT015CB
18:25
V
10 °C 10 km+ - 230° 230° 6 kt METAR EHGG 271625Z AUTO 23006KT 9999 FEW044 10/08 Q0995 TEMPO 6000 SHRA SCT015CB
17:55
V
10 °C 10 km+ - 220° 220° 7 kt METAR EHGG 271555Z AUTO 22007KT 9999 FEW009 10/08 Q0995 TEMPO 6000 SHRA SCT015CB
17:25
V
10 °C 10 km+ - 230° 230° 8 kt METAR EHGG 271525Z AUTO 23008KT 9999 SCT048 10/09 Q0995 TEMPO 6000 SHRA SCT015CB
16:55
V
10 °C 10 km+ - 240° 240° 7 kt METAR EHGG 271455Z AUTO 24007KT 200V270 9999 -RA FEW015CB 10/09 Q0995 TEMPO 6000 SHRA SCT015CB
16:25
V
10 °C 10 km+ 4,300 ft 270° 270° 3 kt METAR EHGG 271425Z AUTO 27003KT 230V310 9999 FEW015CB BKN043 10/08 Q0995 RERA TEMPO 6000 SHRA SCT015CB
15:55
V
9 °C 10 km+ 3,200 ft 270° 270° 11 kt METAR EHGG 271355Z AUTO 27011KT 220V320 9999 -RADZ FEW015CB BKN032 BKN039 OVC043 09/07 Q0995 TEMPO 6000 SHRA SCT015CB
15:25
V
12 °C 10 km+ 3,500 ft 270° 270° 8 kt METAR EHGG 271325Z AUTO 27008KT 230V320 9999 FEW016CB SCT025 BKN035 12/08 Q0995 TEMPO 6000 SHRA SCT015CB
14:55
V
11 °C 10 km+ 4,000 ft 270° 270° 4 kt METAR EHGG 271255Z AUTO 27004KT 230V320 9999 -RA FEW036 BKN040 BKN044 11/09 Q0995 TEMPO 6000 SHRA SCT015CB BKN030
14:25
M
12 °C 10 km+ 1,600 ft 290° 290° 10 kt METAR EHGG 271225Z AUTO 29010KT 260V320 9999 BKN016 BKN021 OVC029 12/08 Q0995 TEMPO 6000 SHRA SCT015CB BKN030
13:55
V
11 °C 10 km+ - 240° 240° 6 kt METAR EHGG 271155Z AUTO 24006KT 9999 FEW015CB 11/10 Q0995 TEMPO 6000 SHRA SCT015CB BKN030
13:25
V
10 °C 10 km+ - 270° 270° 7 kt METAR EHGG 271125Z AUTO 27007KT 240V310 9999 SHRA FEW015CB SCT044 10/07 Q0995 TEMPO 6000 SHRA SCT015CB BKN030
12:55
M
12 °C 10 km+ 2,000 ft 250° 250° 8 kt METAR EHGG 271055Z AUTO 25008KT 220V310 9999 FEW012 SCT014 FEW015CB BKN020 12/10 Q0995 TEMPO 6000 SHRA SCT015CB BKN030
12:25
V
10 °C 10 km+ 4,600 ft 250° 250° 5 kt METAR EHGG 271025Z AUTO 25005KT 9999 -RA SCT041 BKN046 10/08 Q0995 REDZRA TEMPO 6000 SHRA SCT015CB BKN030
11:55
M
13 °C 10 km+ 2,200 ft 250° 250° 10 kt METAR EHGG 270955Z AUTO 25010KT 220V290 9999 SCT015CB SCT018 BKN022 13/09 Q0995 TEMPO 6000 SHRA SCT015CB BKN030
11:25
V
11 °C 10 km+ 3,600 ft 230° 230° 9 kt METAR EHGG 270925Z AUTO 23009KT 9999 FEW027 SCT031 OVC036 11/10 Q0995 TEMPO 6000 SHRA SCT015CB BKN030
10:55
V
11 °C 10 km+ - 240° 240° 7 kt METAR EHGG 270855Z AUTO 24007KT 210V280 9999 SCT024 SCT044 11/10 Q0995 TEMPO 6000 SHRA SCT015CB BKN030
10:25
V
10 °C 10 km+ 3,500 ft 280° 280° 6 kt METAR EHGG 270825Z AUTO 28006KT 250V310 9999 -SHRA FEW015CB BKN035 OVC040 10/08 Q0995 RERA TEMPO 6000 SHRA SCT015CB BKN030
09:55
V
11 °C 9 km 3,200 ft 260° 260° 7 kt METAR EHGG 270755Z AUTO 26007KT 230V300 9000 SHRA FEW015CB SCT025 BKN032 11/09 Q0995 REDZ TEMPO 6000 SHRA SCT015CB BKN030
09:25
M
10 °C 6 km 3,800 ft 260° 260° 8 kt METAR EHGG 270725Z AUTO 26008KT 210V290 6000 DZ FEW018 SCT023 BKN038 10/09 Q0994 TEMPO 6000 SHRA SCT015CB BKN030
08:55
V
9 °C 10 km+ 4,000 ft 260° 260° 7 kt METAR EHGG 270655Z AUTO 26007KT 9999 SCT036 BKN040 OVC046 09/08 Q0994 TEMPO 6000 SHRA SCT015CB BKN030
08:25
V
9 °C 10 km+ 3,600 ft 250° 250° 6 kt METAR EHGG 270625Z AUTO 25006KT 220V280 9999 +DZRA FEW015CB SCT031 BKN036 09/08 Q0994 TEMPO 6000 SHRA SCT015CB BKN030
07:55
V
9 °C 10 km+ - 270° 270° 5 kt METAR EHGG 270555Z AUTO 27005KT 240V300 9999 -RA FEW015CB 09/08 Q0994 REDZRA TEMPO 6000 SHRA SCT015CB BKN030
07:25
V
9 °C 10 km+ - 280° 280° 5 kt METAR EHGG 270525Z AUTO 28005KT 260V320 9999 FEW015CB 09/08 Q0994 REDZ TEMPO 6000 SHRA SCT015CB BKN030
06:55
V
9 °C 10 km+ - 290° 290° 7 kt METAR EHGG 270455Z AUTO 29007KT 250V330 9999 -DZ FEW015CB 09/08 Q0993 REDZ TEMPO 6000 SHRA SCT015CB BKN030
06:25
V
9 °C 10 km+ - 290° 290° 10 kt METAR EHGG 270425Z AUTO 29010KT 250V320 9999 FEW015CB 09/08 Q0993 TEMPO 6000 SHRA SCT015CB BKN030
05:55
V
9 °C 10 km+ - 280° 280° 9 kt METAR EHGG 270355Z AUTO 28009KT 250V310 9999 RA FEW015CB SCT045 09/08 Q0993
05:25
V
9 °C 10 km+ 3,000 ft 280° 280° 9 kt METAR EHGG 270325Z AUTO 28009KT 240V310 9999 FEW015CB SCT027 BKN030 OVC041 09/08 Q0993
04:55
V
9 °C 10 km+ 3,500 ft 250° 250° 7 kt METAR EHGG 270255Z AUTO 25007KT 9999 FEW015CB BKN035 BKN049 09/08 Q0994
04:25
V
9 °C 10 km+ 4,800 ft 270° 270° 8 kt METAR EHGG 270225Z AUTO 27008KT 240V300 9999 SHRA FEW015CB SCT030 BKN048 09/08 Q0993 REDZ
03:55
M
9 °C 10 km+ 2,800 ft 280° 280° 3 kt METAR EHGG 270155Z AUTO 28003KT 230V320 9999 DZRA FEW015CB BKN028 BKN036 09/09 Q0993 RERADZ
03:25
V
9 °C 10 km+ 4,100 ft 250° 250° 6 kt METAR EHGG 270125Z AUTO 25006KT 9999 FEW025 SCT030 BKN041 09/08 Q0993
02:55
V
9 °C 10 km+ - 250° 250° 6 kt METAR EHGG 270055Z AUTO 25006KT 9999 FEW015CB 09/09 Q0993 REDZ
02:25
M
10 °C 7 km 3,100 ft 280° 280° 5 kt METAR EHGG 270025Z AUTO 28005KT 230V310 7000 SHRA +DZ FEW004 FEW015CB SCT027 BKN031 10/09 Q0993
01:55
V
9 °C 10 km+ - 260° 260° 5 kt METAR EHGG 262355Z AUTO 26005KT 9999 FEW015CB SCT048 09/09 Q0993 REDZ
01:25
V
10 °C 10 km+ - 290° 290° 6 kt METAR EHGG 262325Z AUTO 29006KT 260V320 9999 FEW029 SCT033 10/09 Q0993
00:55
V
10 °C 10 km+ - 310° 310° 6 kt METAR EHGG 262255Z AUTO 31006KT 270V340 9999 NSC 10/09 Q0993 REDZ
00:25
V
10 °C 10 km+ - 270° 270° 4 kt METAR EHGG 262225Z AUTO 27004KT 240V300 9999 FEW026 10/09 Q0993

September 26, 2022

Time Code Weather Temp. Visibility Ceiling Wind METAR/SPECI
23:55
V
10 °C 10 km+ - 260° 260° 5 kt METAR EHGG 262155Z AUTO 26005KT 9999 -DZ FEW025 10/09 Q0993
23:25
V
10 °C 10 km+ - 250° 250° 5 kt METAR EHGG 262125Z AUTO 25005KT 9999 FEW030 10/10 Q0993 REDZ
22:55
V
10 °C 10 km+ - 260° 260° 4 kt METAR EHGG 262055Z AUTO 26004KT 9999 -DZ NSC 10/10 Q0993 REDZ
22:25
V
11 °C 10 km+ - 270° 270° 7 kt METAR EHGG 262025Z AUTO 27007KT 9999 DZ FEW015CB SCT047 11/10 Q0993 TEMPO 7000 -SHRA FEW020CB
21:55
V
10 °C 10 km+ 3,400 ft 260° 260° 6 kt METAR EHGG 261955Z AUTO 26006KT 9999 FEW023 SCT029 BKN034 10/10 Q0994 TEMPO 7000 -SHRA FEW020CB
21:25
V
11 °C 10 km+ - 270° 270° 5 kt METAR EHGG 261925Z AUTO 27005KT 9999 NSC 11/10 Q0993 TEMPO 7000 -SHRA FEW020CB
20:55
M
11 °C 10 km+ 1,900 ft 240° 240° 7 kt METAR EHGG 261855Z AUTO 24007KT 9999 FEW012 BKN019 BKN027 11/11 Q0993 TEMPO 7000 -SHRA FEW020CB
20:25
M
11 °C 10 km+ 2,500 ft 210° 210° 6 kt METAR EHGG 261825Z AUTO 21006KT 9999 SCT022 BKN025 OVC029 11/11 Q0993 REDZ TEMPO 7000 -SHRA FEW020CB
19:55
V
11 °C 10 km+ - 200° 200° 4 kt METAR EHGG 261755Z AUTO 20004KT 9999 FEW048 11/10 Q0993 TEMPO 7000 -SHRA FEW020CB
19:25
V
11 °C 10 km+ - 210° 210° 3 kt METAR EHGG 261725Z AUTO 21003KT 9999 FEW015CB 11/10 Q0993 TEMPO 7000 -SHRA FEW020CB
18:55
V
11 °C 8 km 4,600 ft 230° 230° 5 kt METAR EHGG 261655Z AUTO 23005KT 8000 SHRA FEW015CB SCT039 BKN046 11/11 Q0994 BECMG BKN020
18:25
M
12 °C 8 km 1,100 ft 250° 250° 6 kt METAR EHGG 261625Z AUTO 25006KT 200V300 8000 RA FEW004 SCT006 BKN011 FEW015CB 12/12 Q0994 BECMG BKN020
17:55
M
13 °C 10 km+ 2,900 ft 210° 210° 9 kt METAR EHGG 261555Z AUTO 21009KT 180V240 9999 FEW007 SCT008 BKN029 13/12 Q0993 TEMPO 6000 SHRA BKN012 SCT020CB
17:25
V
13 °C 10 km+ - 200° 200° 10 kt METAR EHGG 261525Z AUTO 20010KT 9999 FEW007/// SCT010/// 13/12 Q0993 TEMPO 6000 SHRA BKN012 SCT020CB
16:55
V
13 °C 10 km+ - 210° 210° 12 kt METAR EHGG 261455Z AUTO 21012KT 9999 -RA FEW008 13/12 Q0994 RERADZRA TEMPO 6000 SHRA BKN012 SCT020CB
16:25
I
12 °C 4.4 km 700 ft 210° 210° 11 kt METAR EHGG 261425Z AUTO 21011KT 170V240 4400 SHRA FEW004 BKN007 BKN008 12/11 Q0994 REDZ BECMG 9999 NSW BKN012
15:55
I
12 °C 10 km+ 800 ft 200° 200° 13 kt METAR EHGG 261355Z AUTO 20013KT 170V230 9999 FEW006 BKN008 BKN009 12/11 Q0994 NOSIG
15:25
I
12 °C 10 km+ 900 ft 210° 210° 16 kt METAR EHGG 261325Z AUTO 21016KT 170V250 9999 FEW006 SCT007 BKN009 12/11 Q0995 REDZ BECMG 6000
14:55
I
12 °C 5 km 800 ft 200° 200° 14 kt METAR EHGG 261255Z AUTO 20014KT 170V230 5000 -RADZ FEW006 SCT007 BKN008 12/11 Q0995 REDZRA TEMPO 4000 DZRA
14:25
I
12 °C 3.3 km 600 ft 200° 200° 13 kt METAR EHGG 261225Z AUTO 20013KT 3300 DZRA SCT005 BKN006 BKN008 12/11 Q0995 TEMPO 6000 -DZRA
13:55
I
11 °C 7 km 700 ft 200° 200° 12 kt METAR EHGG 261155Z AUTO 20012KT 170V230 7000 -DZ SCT006/// BKN007/// OVC009/// 11/11 Q0995 REDZ TEMPO 4000 RADZ SHRA BKN012 FEW018CB
13:25
I
11 °C 4.1 km 800 ft 190° 190° 12 kt METAR EHGG 261125Z AUTO 19012KT 160V230 4100 +DZ FEW005 SCT007 BKN008 11/10 Q0996 TEMPO 6000 RADZ SHRA BKN012 FEW018CB
12:55
I
11 °C 3.7 km 1,000 ft 200° 200° 12 kt METAR EHGG 261055Z AUTO 20012KT 150V230 3700 DZRA FEW008 SCT009 BKN010 11/10 Q0996 TEMPO 6000 RADZ SHRA BKN008 FEW018CB
12:25
I
11 °C 3.1 km 1,500 ft 200° 200° 13 kt METAR EHGG 261025Z AUTO 20013KT 160V230 3100 BR FEW005 SCT013 OVC015 11/10 Q0996 TEMPO 4000 RA SHRA BKN008 FEW018CB
11:55
M
12 °C 10 km+ 1,600 ft 200° 200° 14 kt METAR EHGG 260955Z AUTO 20014KT 150V220 9999 -RA BKN016 BKN029 OVC037 12/09 Q0997 TEMPO 7000 RA SHRA BKN012 FEW018CB
11:25
V
11 °C 10 km+ 4,800 ft 190° 190° 14 kt METAR EHGG 260925Z AUTO 19014KT 150V240 9999 -DZ SCT017 BKN048 11/09 Q0997 BECMG BKN008
10:55
V
11 °C 10 km+ - 190° 190° 15 kt METAR EHGG 260855Z AUTO 19015KT 150V210 9999 NSC 11/09 Q0997 NOSIG
10:25
V
11 °C 10 km+ - 190° 190° 15 kt METAR EHGG 260825Z AUTO 19015KT 150V230 9999 NSC 11/09 Q0997 NOSIG
09:55
V
11 °C 10 km+ 4,800 ft 200° 200° 13 kt METAR EHGG 260755Z AUTO 20013KT 160V230 9999 -DZ OVC048 11/09 Q0998 NOSIG
09:25
V
10 °C 10 km+ 4,300 ft 200° 200° 15 kt METAR EHGG 260725Z AUTO 20015KT 160V230 9999 -RA FEW015CB SCT037 OVC043 10/09 Q0998 REDZRA TEMPO 7000 RA
08:55
V
10 °C 10 km+ 3,900 ft 200° 200° 14 kt METAR EHGG 260655Z AUTO 20014KT 160V230 9999 -RADZ FEW030 BKN039 OVC046 10/09 Q0999 TEMPO 7000 RA
08:25
V
10 °C 10 km+ 4,500 ft 200° 200° 13 kt METAR EHGG 260625Z AUTO 20013KT 9999 -RA FEW015CB SCT040 OVC045 10/09 Q0999 REDZRA TEMPO 7000 RA
07:55
V
11 °C 10 km+ - 200° 200° 13 kt METAR EHGG 260555Z AUTO 20013KT 170V230 9999 DZ FEW015CB 11/09 Q1000 TEMPO 7000 RA
07:25
V
11 °C 10 km+ - 190° 190° 12 kt METAR EHGG 260525Z AUTO 19012KT 160V220 9999 DZRA NSC 11/09 Q1000 REDZ TEMPO 7000 RA
06:55
V
11 °C 10 km+ 3,900 ft 190° 190° 11 kt METAR EHGG 260455Z AUTO 19011KT 160V230 9999 DZ SCT035 BKN039 BKN044 11/09 Q1001 TEMPO 7000 RA
06:25
V
11 °C 10 km+ - 190° 190° 11 kt METAR EHGG 260425Z AUTO 19011KT 160V220 9999 NSC 11/10 Q1001 REDZ TEMPO 7000 RA
05:55
V
11 °C 10 km+ - 200° 200° 11 kt METAR EHGG 260355Z AUTO 20011KT 160V230 9999 -RA FEW015CB 11/10 Q1002 REDZRA TEMPO 7000 RA
05:25
V
11 °C 10 km+ - 200° 200° 11 kt METAR EHGG 260325Z AUTO 20011KT 170V230 9999 DZ FEW015CB 11/09 Q1002
04:55
V
11 °C 10 km+ 4,700 ft 210° 210° 10 kt METAR EHGG 260255Z AUTO 21010KT 9999 -RA FEW015CB SCT031 BKN047 11/09 Q1003
Older data

We and third parties follow your internet behavior on our website with cookies. If you continue, we assume you agree with our cookie policy. Learn more